createdAt,value
2019-05-21T00:02:16.926Z,99074.66
2019-05-21T00:04:47.516Z,99079.60
2019-05-21T00:07:17.838Z,99078.09
2019-05-21T00:09:48.099Z,99073.46
2019-05-21T00:12:18.364Z,99079.27
2019-05-21T00:14:48.588Z,99086.24
2019-05-21T00:17:18.872Z,99086.95
2019-05-21T00:19:49.178Z,99082.70
2019-05-21T00:22:19.416Z,99079.75
2019-05-21T00:24:51.622Z,99078.75
2019-05-21T00:27:22.022Z,99083.14
2019-05-21T00:30:47.361Z,99082.64
2019-05-21T00:34:12.773Z,99081.36
2019-05-21T00:37:38.138Z,99084.56
2019-05-21T00:41:03.497Z,99078.28
2019-05-21T00:43:47.510Z,99081.27
2019-05-21T00:46:17.752Z,99079.34
2019-05-21T00:48:48.034Z,99073.88
2019-05-21T00:51:18.263Z,99072.67
2019-05-21T00:53:48.540Z,99076.01
2019-05-21T00:56:18.847Z,99075.27
2019-05-21T00:58:49.055Z,99075.42
2019-05-21T01:01:19.299Z,99082.66
2019-05-21T01:03:49.573Z,99082.33
2019-05-21T01:06:19.795Z,99084.81
2019-05-21T01:08:50.018Z,99087.05
2019-05-21T01:11:20.267Z,99081.71
2019-05-21T01:13:50.798Z,99075.31
2019-05-21T01:16:21.371Z,99074.77
2019-05-21T01:18:51.778Z,99075.05
2019-05-21T01:21:23.212Z,99077.34
2019-05-21T01:23:53.532Z,99078.22
2019-05-21T01:26:23.766Z,99078.94
2019-05-21T01:28:53.977Z,99075.03
2019-05-21T01:31:24.446Z,99075.61
2019-05-21T01:33:54.650Z,99078.59
2019-05-21T01:36:24.954Z,99081.33
2019-05-21T01:38:55.233Z,99079.49
2019-05-21T01:41:26.556Z,99081.45
2019-05-21T01:43:56.755Z,99081.33
2019-05-21T01:46:26.995Z,99078.78
2019-05-21T01:48:57.209Z,99078.08
2019-05-21T01:51:27.429Z,99075.77
2019-05-21T01:53:58.712Z,99075.44
2019-05-21T01:56:28.931Z,99073.41
2019-05-21T01:58:59.173Z,99083.12
2019-05-21T02:01:29.389Z,99077.45
2019-05-21T02:03:59.667Z,99073.78
2019-05-21T02:06:30.356Z,99074.57
2019-05-21T02:09:00.578Z,99074.95
2019-05-21T02:11:30.983Z,99073.02
2019-05-21T02:14:01.257Z,99074.62
2019-05-21T02:16:31.484Z,99075.91
2019-05-21T02:19:01.699Z,99067.89
2019-05-21T02:21:32.001Z,99072.73
2019-05-21T02:24:02.222Z,99072.95
2019-05-21T02:26:32.528Z,99075.28
2019-05-21T02:29:02.867Z,99070.36
2019-05-21T02:31:33.093Z,99071.03
2019-05-21T02:34:03.375Z,99070.86
2019-05-21T02:36:33.664Z,99074.33
2019-05-21T02:39:05.036Z,99071.37
2019-05-21T02:41:35.290Z,99069.55
2019-05-21T02:44:05.490Z,99067.17
2019-05-21T02:46:35.726Z,99063.25
2019-05-21T02:49:05.968Z,99066.13
2019-05-21T02:51:36.199Z,99071.16
2019-05-21T02:54:06.485Z,99073.66
2019-05-21T02:56:36.791Z,99068.08
2019-05-21T02:59:06.995Z,99068.78
2019-05-21T03:01:47.439Z,99061.27
2019-05-21T03:04:17.643Z,99061.67
2019-05-21T03:06:47.914Z,99064.06
2019-05-21T03:09:18.113Z,99065.11
2019-05-21T03:11:48.411Z,99061.59
2019-05-21T03:14:18.721Z,99057.69
2019-05-21T03:16:48.947Z,99057.97
2019-05-21T03:19:20.228Z,99057.64
2019-05-21T03:21:50.466Z,99064.52
2019-05-21T03:24:20.676Z,99072.66
2019-05-21T03:26:50.925Z,99074.25
2019-05-21T03:29:21.184Z,99072.50
2019-05-21T03:31:51.433Z,99069.55
2019-05-21T03:34:21.636Z,99077.13
2019-05-21T03:36:51.864Z,99077.42
2019-05-21T03:39:22.097Z,99082.19
2019-05-21T03:41:52.312Z,99081.85
2019-05-21T03:44:22.551Z,99086.53
2019-05-21T03:46:52.826Z,99080.49
2019-05-21T03:49:23.633Z,99088.17
2019-05-21T03:51:53.871Z,99083.59
2019-05-21T03:54:24.273Z,99083.52
2019-05-21T03:56:54.506Z,99082.28
2019-05-21T03:59:24.738Z,99090.00
2019-05-21T04:01:54.944Z,99095.48
2019-05-21T04:04:25.161Z,99097.98
2019-05-21T04:06:55.371Z,99088.09
2019-05-21T04:09:25.649Z,99090.69
2019-05-21T04:11:55.963Z,99097.17
2019-05-21T04:14:40.209Z,99095.00
2019-05-21T04:17:28.427Z,99092.31
2019-05-21T04:19:58.726Z,99079.67
2019-05-21T04:22:28.918Z,99063.81
2019-05-21T04:24:59.127Z,99051.84
2019-05-21T04:27:29.349Z,99051.45
2019-05-21T04:29:59.649Z,99062.14
2019-05-21T04:32:30.925Z,99060.64
2019-05-21T04:35:01.167Z,99073.54
2019-05-21T04:37:31.364Z,99084.61
2019-05-21T04:40:01.606Z,99084.83
2019-05-21T04:42:31.866Z,99093.13
2019-05-21T04:45:02.100Z,99087.77
2019-05-21T04:47:32.438Z,99090.09
2019-05-21T04:50:02.717Z,99092.31
2019-05-21T04:52:33.199Z,99106.34
2019-05-21T04:55:04.200Z,99095.08
2019-05-21T04:57:37.292Z,99084.02
2019-05-21T05:00:06.638Z,99091.70
2019-05-21T05:02:36.843Z,99093.20
2019-05-21T05:05:07.081Z,99090.88
2019-05-21T05:07:38.556Z,99093.16
2019-05-21T05:10:08.819Z,99095.06
2019-05-21T05:12:39.025Z,99089.72
2019-05-21T05:15:09.247Z,99086.72
2019-05-21T05:17:39.643Z,99082.98
2019-05-21T05:20:09.860Z,99095.48
2019-05-21T05:22:40.084Z,99095.83
2019-05-21T05:25:10.308Z,99093.70
2019-05-21T05:27:40.504Z,99098.55
2019-05-21T05:30:10.887Z,99105.22
2019-05-21T05:32:41.167Z,99109.02
2019-05-21T05:35:11.511Z,99108.36
2019-05-21T05:37:45.259Z,99110.61
2019-05-21T05:40:14.376Z,99117.00
2019-05-21T05:42:45.940Z,99115.91
2019-05-21T05:45:16.206Z,99119.09
2019-05-21T05:47:46.509Z,99117.08
2019-05-21T05:50:19.435Z,99114.45
2019-05-21T05:52:49.650Z,99119.73
2019-05-21T05:55:20.945Z,99114.47
2019-05-21T05:57:51.143Z,99117.48
2019-05-21T06:00:22.094Z,99112.64
2019-05-21T06:02:52.359Z,99108.89
2019-05-21T06:05:22.582Z,99109.30
2019-05-21T06:07:59.792Z,99103.06
2019-05-21T06:10:25.792Z,99105.84
2019-05-21T06:12:55.993Z,99100.38
2019-05-21T06:15:26.229Z,99089.05
2019-05-21T06:17:56.428Z,99076.10
2019-05-21T06:20:26.648Z,99085.53
2019-05-21T06:22:56.923Z,99080.20
2019-05-21T06:25:27.230Z,99080.03
2019-05-21T06:27:57.507Z,99079.09
2019-05-21T06:30:27.824Z,99083.35
2019-05-21T06:32:58.062Z,99070.77
2019-05-21T06:35:28.321Z,99085.27
2019-05-21T06:37:58.547Z,99094.79
2019-05-21T06:40:28.847Z,99095.59
2019-05-21T06:42:59.054Z,99089.72
2019-05-21T06:45:29.348Z,99093.16
2019-05-21T06:47:59.544Z,99107.19
2019-05-21T06:50:29.765Z,99104.47
2019-05-21T06:52:59.987Z,99119.95
2019-05-21T06:55:30.190Z,99125.95
2019-05-21T06:58:00.408Z,99130.17
2019-05-21T07:00:30.613Z,99132.09
2019-05-21T07:03:00.898Z,99133.84
2019-05-21T07:05:31.255Z,99126.16
2019-05-21T07:08:01.477Z,99145.81
2019-05-21T07:10:33.720Z,99142.98
2019-05-21T07:13:03.920Z,99156.38
2019-05-21T07:15:34.117Z,99156.70
2019-05-21T07:18:04.333Z,99164.72
2019-05-21T07:20:34.585Z,99155.87
2019-05-21T07:23:05.156Z,99163.59
2019-05-21T07:25:35.485Z,99161.34
2019-05-21T07:28:06.775Z,99165.42
2019-05-21T07:30:37.080Z,99168.02
2019-05-21T07:33:07.674Z,99174.98
2019-05-21T07:35:38.199Z,99170.39
2019-05-21T07:38:09.501Z,99172.73
2019-05-21T07:40:39.710Z,99166.84
2019-05-21T07:43:09.936Z,99169.68
2019-05-21T07:45:40.138Z,99166.30
2019-05-21T07:48:10.446Z,99162.72
2019-05-21T07:50:40.644Z,99166.22
2019-05-21T07:53:10.864Z,99166.89
2019-05-21T07:55:41.058Z,99171.22
2019-05-21T07:58:11.313Z,99172.77
2019-05-21T08:00:41.604Z,99181.86
2019-05-21T08:03:11.840Z,99180.81
2019-05-21T08:05:42.043Z,99193.05
2019-05-21T08:08:12.332Z,99186.79
2019-05-21T08:10:42.569Z,99185.17
2019-05-21T08:13:12.940Z,99190.84
2019-05-21T08:15:43.202Z,99190.56
2019-05-21T08:18:13.419Z,99199.56
2019-05-21T08:20:43.716Z,99196.27
2019-05-21T08:23:13.938Z,99206.62
2019-05-21T08:25:44.218Z,99204.41
2019-05-21T08:28:14.501Z,99209.04
2019-05-21T08:30:44.691Z,99219.92
2019-05-21T08:33:14.986Z,99224.85
2019-05-21T08:35:45.185Z,99227.27
2019-05-21T08:38:15.407Z,99218.17
2019-05-21T08:40:45.595Z,99214.35
2019-05-21T08:43:15.831Z,99233.23
2019-05-21T08:45:46.029Z,99231.20
2019-05-21T08:48:16.249Z,99241.08
2019-05-21T08:50:46.445Z,99250.92
2019-05-21T08:53:16.647Z,99245.17
2019-05-21T08:55:46.899Z,99259.81
2019-05-21T08:58:17.131Z,99272.66
2019-05-21T09:00:47.351Z,99274.16
2019-05-21T09:03:17.613Z,99280.26
2019-05-21T09:05:48.681Z,99276.71
2019-05-21T09:08:18.939Z,99283.34
2019-05-21T09:10:49.226Z,99283.59
2019-05-21T09:13:19.491Z,99283.93
2019-05-21T09:15:50.768Z,99279.92
2019-05-21T09:18:20.967Z,99294.03
2019-05-21T09:20:51.196Z,99297.36
2019-05-21T09:23:21.611Z,99298.41
2019-05-21T09:25:51.877Z,99304.05
2019-05-21T09:28:22.069Z,99302.08
2019-05-21T09:30:52.396Z,99310.55
2019-05-21T09:33:22.590Z,99311.05
2019-05-21T09:35:52.805Z,99314.39
2019-05-21T09:38:22.995Z,99316.14
2019-05-21T09:40:53.281Z,99324.06
2019-05-21T09:43:23.554Z,99316.22
2019-05-21T09:45:53.848Z,99318.22
2019-05-21T09:48:24.038Z,99324.20
2019-05-21T09:50:54.239Z,99320.57
2019-05-21T09:53:24.459Z,99329.67
2019-05-21T09:55:54.688Z,99338.31
2019-05-21T09:58:26.529Z,99343.91
2019-05-21T10:01:10.243Z,99353.20
2019-05-21T10:03:49.594Z,99344.91
2019-05-21T10:06:19.810Z,99339.95
2019-05-21T10:08:50.004Z,99343.00
2019-05-21T10:11:20.235Z,99352.72
2019-05-21T10:13:50.504Z,99348.67
2019-05-21T10:16:20.722Z,99348.67
2019-05-21T10:18:50.972Z,99348.88
2019-05-21T10:21:21.563Z,99347.54
2019-05-21T10:23:51.803Z,99354.97
2019-05-21T10:26:22.092Z,99357.72
2019-05-21T10:28:52.301Z,99366.52
2019-05-21T10:31:22.541Z,99365.52
2019-05-21T10:33:52.740Z,99367.73
2019-05-21T10:36:23.133Z,99373.36
2019-05-21T10:38:53.399Z,99373.19
2019-05-21T10:41:23.629Z,99374.98
2019-05-21T10:43:53.898Z,99381.88
2019-05-21T10:46:24.120Z,99375.31
2019-05-21T10:48:54.387Z,99382.25
2019-05-21T10:51:24.611Z,99393.30
2019-05-21T10:53:54.821Z,99380.16
2019-05-21T10:56:25.117Z,99387.33
2019-05-21T10:58:55.328Z,99391.42
2019-05-21T11:01:30.211Z,99391.17
2019-05-21T11:04:19.841Z,99398.72
2019-05-21T11:06:50.221Z,99405.23
2019-05-21T11:09:21.608Z,99409.53
2019-05-21T11:11:51.825Z,99417.83
2019-05-21T11:14:22.088Z,99412.11
2019-05-21T11:16:52.313Z,99421.71
2019-05-21T11:19:22.531Z,99428.34
2019-05-21T11:21:52.823Z,99433.77
2019-05-21T11:24:24.304Z,99439.73
2019-05-21T11:26:54.551Z,99434.60
2019-05-21T11:29:24.789Z,99447.45
2019-05-21T11:31:57.529Z,99437.02
2019-05-21T11:34:26.924Z,99440.23
2019-05-21T11:36:57.247Z,99449.74
2019-05-21T11:39:27.450Z,99447.91
2019-05-21T11:41:57.686Z,99447.95
2019-05-21T11:44:27.891Z,99441.11
2019-05-21T11:46:58.159Z,99446.95
2019-05-21T11:49:28.399Z,99460.34
2019-05-21T11:51:58.608Z,99467.77
2019-05-21T11:54:28.845Z,99466.72
2019-05-21T11:56:59.070Z,99474.52
2019-05-21T11:59:29.374Z,99476.69
2019-05-21T12:01:59.578Z,99479.41
2019-05-21T12:04:29.876Z,99475.52
2019-05-21T12:07:03.255Z,99480.61
2019-05-21T12:09:33.162Z,99488.25
2019-05-21T12:12:03.372Z,99487.50
2019-05-21T12:14:33.619Z,99489.80
2019-05-21T12:17:03.831Z,99501.22
2019-05-21T12:19:34.062Z,99501.81
2019-05-21T12:22:04.294Z,99496.64
2019-05-21T12:24:34.557Z,99497.67
2019-05-21T12:27:04.738Z,99501.27
2019-05-21T12:29:34.964Z,99503.77
2019-05-21T12:32:05.361Z,99505.85
2019-05-21T12:34:38.896Z,99510.07
2019-05-21T12:37:07.685Z,99514.12
2019-05-21T12:39:37.988Z,99517.83
2019-05-21T12:42:08.202Z,99525.50
2019-05-21T12:44:38.566Z,99525.84
2019-05-21T12:47:09.818Z,99526.17
2019-05-21T12:49:40.527Z,99521.30
2019-05-21T12:52:10.911Z,99529.09
2019-05-21T12:54:41.122Z,99536.52
2019-05-21T12:57:11.378Z,99538.61
2019-05-21T12:59:41.604Z,99543.58
2019-05-21T13:02:11.851Z,99543.83
2019-05-21T13:04:42.075Z,99543.36
2019-05-21T13:07:12.384Z,99544.03
2019-05-21T13:09:42.672Z,99553.92
2019-05-21T13:12:12.941Z,99557.01
2019-05-21T13:14:43.271Z,99566.98
2019-05-21T13:17:13.522Z,99566.64
2019-05-21T13:19:43.795Z,99569.36
2019-05-21T13:22:14.048Z,99573.19
2019-05-21T13:24:44.352Z,99578.33
2019-05-21T13:27:15.628Z,99585.41
2019-05-21T13:29:46.295Z,99592.88
2019-05-21T13:32:16.665Z,99600.52
2019-05-21T13:34:46.900Z,99605.11
2019-05-21T13:37:17.191Z,99610.05
2019-05-21T13:39:50.459Z,99603.78
2019-05-21T13:42:19.448Z,99615.03
2019-05-21T13:44:49.764Z,99614.78
2019-05-21T13:47:19.999Z,99612.66
2019-05-21T13:49:50.241Z,99613.41
2019-05-21T13:52:20.503Z,99621.27
2019-05-21T13:54:50.803Z,99618.50
2019-05-21T13:57:21.156Z,99626.64
2019-05-21T13:59:51.551Z,99623.59
2019-05-21T14:02:22.843Z,99623.59
2019-05-21T14:04:53.193Z,99632.36
2019-05-21T14:07:23.488Z,99628.55
2019-05-21T14:10:13.393Z,99630.31
2019-05-21T14:12:25.626Z,99631.19
2019-05-21T14:14:55.962Z,99631.14
2019-05-21T14:17:26.180Z,99640.83
2019-05-21T14:19:56.393Z,99638.64
2019-05-21T14:22:26.625Z,99636.61
2019-05-21T14:24:56.832Z,99639.11
2019-05-21T14:27:43.251Z,99638.77
2019-05-21T14:29:58.978Z,99640.44
2019-05-21T14:32:29.194Z,99643.00
2019-05-21T14:35:01.708Z,99647.45
2019-05-21T14:37:31.392Z,99650.16
2019-05-21T14:40:01.587Z,99651.17
2019-05-21T14:42:31.888Z,99656.42
2019-05-21T14:45:02.147Z,99656.84
2019-05-21T14:47:33.471Z,99659.97
2019-05-21T14:50:05.696Z,99661.34
2019-05-21T14:52:35.994Z,99661.44
2019-05-21T14:55:09.371Z,99664.40
2019-05-21T14:57:39.725Z,99669.41
2019-05-21T15:00:20.521Z,99665.36
2019-05-21T15:02:50.747Z,99674.91
2019-05-21T15:05:20.944Z,99666.69
2019-05-21T15:07:51.220Z,99673.91
2019-05-21T15:10:21.490Z,99664.30
2019-05-21T15:12:51.730Z,99676.41
2019-05-21T15:15:21.942Z,99675.73
2019-05-21T15:17:52.446Z,99679.91
2019-05-21T15:20:42.780Z,99680.61
2019-05-21T15:23:13.140Z,99681.42
2019-05-21T15:25:43.369Z,99678.80
2019-05-21T15:28:13.782Z,99687.80
2019-05-21T15:30:45.120Z,99689.64
2019-05-21T15:33:15.402Z,99686.47
2019-05-21T15:35:45.682Z,99684.30
2019-05-21T15:38:15.993Z,99685.92
2019-05-21T15:40:46.337Z,99689.60
2019-05-21T15:43:16.652Z,99689.55
2019-05-21T15:45:46.849Z,99695.64
2019-05-21T15:48:17.161Z,99694.27
2019-05-21T15:50:47.363Z,99703.57
2019-05-21T15:53:17.586Z,99701.73
2019-05-21T15:55:47.788Z,99706.28
2019-05-21T15:58:18.100Z,99709.79
2019-05-21T16:00:48.314Z,99715.05
2019-05-21T16:03:18.681Z,99718.63
2019-05-21T16:05:48.902Z,99717.80
2019-05-21T16:08:19.117Z,99717.70
2019-05-21T16:10:49.413Z,99724.80
2019-05-21T16:13:19.776Z,99720.97
2019-05-21T16:15:50.084Z,99726.98
2019-05-21T16:18:20.291Z,99725.97
2019-05-21T16:20:50.480Z,99724.97
2019-05-21T16:23:20.715Z,99722.80
2019-05-21T16:25:50.910Z,99726.81
2019-05-21T16:28:21.280Z,99726.34
2019-05-21T16:30:51.484Z,99730.98
2019-05-21T16:33:21.845Z,99729.48
2019-05-21T16:35:52.134Z,99729.14
2019-05-21T16:38:22.759Z,99732.02
2019-05-21T16:40:52.979Z,99729.30
2019-05-21T16:43:23.371Z,99730.97
2019-05-21T16:45:53.657Z,99735.36
2019-05-21T16:48:23.979Z,99732.91
2019-05-21T16:50:54.272Z,99731.81
2019-05-21T16:53:24.562Z,99733.36
2019-05-21T16:55:54.771Z,99733.11
2019-05-21T16:58:25.240Z,99736.11
2019-05-21T17:00:55.438Z,99741.08
2019-05-21T17:03:25.723Z,99744.17
2019-05-21T17:05:55.933Z,99749.72
2019-05-21T17:08:26.170Z,99750.80
2019-05-21T17:10:56.542Z,99753.39
2019-05-21T17:13:26.852Z,99752.39
2019-05-21T17:15:57.068Z,99754.09
2019-05-21T17:18:27.298Z,99757.23
2019-05-21T17:20:57.484Z,99761.44
2019-05-21T17:23:27.722Z,99752.17
2019-05-21T17:25:58.095Z,99763.35
2019-05-21T17:28:29.609Z,99766.69
2019-05-21T17:31:00.054Z,99763.92
2019-05-21T17:33:30.317Z,99777.08
2019-05-21T17:36:00.911Z,99777.95
2019-05-21T17:38:31.187Z,99776.02
2019-05-21T17:41:01.556Z,99784.36
2019-05-21T17:43:31.845Z,99785.06
2019-05-21T17:46:02.147Z,99784.56
2019-05-21T17:48:32.425Z,99792.45
2019-05-21T17:51:02.667Z,99789.31
2019-05-21T17:53:32.941Z,99791.03
2019-05-21T17:56:03.524Z,99786.98
2019-05-21T17:58:34.082Z,99791.52
2019-05-21T18:01:06.709Z,99794.06
2019-05-21T18:03:37.172Z,99798.48
2019-05-21T18:06:08.913Z,99803.28
2019-05-21T18:08:39.340Z,99801.31
2019-05-21T18:11:09.810Z,99801.89
2019-05-21T18:13:40.156Z,99805.81
2019-05-21T18:16:11.628Z,99814.24
2019-05-21T18:18:41.958Z,99817.31
2019-05-21T18:21:12.300Z,99818.94
2019-05-21T18:23:42.583Z,99827.66
2019-05-21T18:26:12.958Z,99829.58
2019-05-21T18:28:43.791Z,99841.02
2019-05-21T18:31:15.882Z,99843.95
2019-05-21T18:33:46.151Z,99844.58
2019-05-21T18:36:16.441Z,99846.58
2019-05-21T18:38:46.717Z,99853.33
2019-05-21T18:41:17.022Z,99856.41
2019-05-21T18:43:50.062Z,99858.52
2019-05-21T18:46:19.367Z,99863.27
2019-05-21T18:48:49.638Z,99868.52
2019-05-21T18:51:19.879Z,99876.48
2019-05-21T18:53:50.145Z,99873.85
2019-05-21T18:56:20.396Z,99877.80
2019-05-21T18:58:50.733Z,99875.27
2019-05-21T19:01:21.098Z,99884.33
2019-05-21T19:03:51.371Z,99897.84
2019-05-21T19:06:21.592Z,99896.38
2019-05-21T19:08:52.012Z,99899.58
2019-05-21T19:11:22.302Z,99903.38
2019-05-21T19:13:52.573Z,99909.33
2019-05-21T19:16:22.867Z,99911.06
2019-05-21T19:18:53.136Z,99915.95
2019-05-21T19:21:23.445Z,99915.15
2019-05-21T19:23:53.729Z,99926.66
2019-05-21T19:26:24.226Z,99934.63
2019-05-21T19:28:54.489Z,99934.17
2019-05-21T19:31:24.761Z,99936.62
2019-05-21T19:33:55.060Z,99936.73
2019-05-21T19:36:25.296Z,99935.14
2019-05-21T19:38:55.570Z,99945.81
2019-05-21T19:41:25.879Z,99948.62
2019-05-21T19:43:56.164Z,99951.62
2019-05-21T19:46:26.467Z,99960.20
2019-05-21T19:48:56.746Z,99961.70
2019-05-21T19:51:26.995Z,99967.21
2019-05-21T19:53:57.268Z,99963.11
2019-05-21T19:56:27.490Z,99972.45
2019-05-21T19:58:57.732Z,99966.74
2019-05-21T20:01:29.103Z,99968.19
2019-05-21T20:03:59.415Z,99973.38
2019-05-21T20:06:29.756Z,99973.19
2019-05-21T20:09:00.734Z,99970.32
2019-05-21T20:11:32.710Z,99970.45
2019-05-21T20:14:03.081Z,99968.39
2019-05-21T20:16:35.523Z,99969.52
2019-05-21T20:19:06.366Z,99970.56
2019-05-21T20:21:36.578Z,99977.49
2019-05-21T20:24:07.255Z,99977.27
2019-05-21T20:26:38.173Z,99976.86
2019-05-21T20:29:09.242Z,99974.77
2019-05-21T20:31:41.369Z,99979.11
2019-05-21T20:34:11.804Z,99976.73
2019-05-21T20:36:42.202Z,99975.30
2019-05-21T20:39:14.155Z,99972.34
2019-05-21T20:41:44.815Z,99972.13
2019-05-21T20:44:16.261Z,99975.84
2019-05-21T20:46:46.996Z,99972.53
2019-05-21T20:49:17.280Z,99975.24
2019-05-21T20:51:47.523Z,99978.55
2019-05-21T20:54:19.459Z,99975.20
2019-05-21T20:56:49.766Z,99979.25
2019-05-21T20:59:20.007Z,99975.58
2019-05-21T21:01:50.452Z,99974.95
2019-05-21T21:04:20.774Z,99976.12
2019-05-21T21:06:51.491Z,99976.36
2019-05-21T21:09:21.842Z,99978.86
2019-05-21T21:11:52.755Z,99977.59
2019-05-21T21:14:25.737Z,99979.23
2019-05-21T21:16:56.275Z,99980.09
2019-05-21T21:19:26.653Z,99976.33
2019-05-21T21:21:56.926Z,99981.34
2019-05-21T21:24:27.239Z,99981.50
2019-05-21T21:26:57.778Z,99983.51
2019-05-21T21:29:28.004Z,99983.24
2019-05-21T21:31:58.351Z,99988.48
2019-05-21T21:34:28.722Z,99984.31
2019-05-21T21:36:59.082Z,99984.31
2019-05-21T21:39:29.579Z,99984.28
2019-05-21T21:41:59.877Z,99981.81
2019-05-21T21:44:33.950Z,99988.65
2019-05-21T21:47:03.726Z,99991.59
2019-05-21T21:49:34.529Z,99989.95
2019-05-21T21:52:06.811Z,99994.28
2019-05-21T21:54:38.254Z,99996.25
2019-05-21T21:57:08.469Z,99992.55
2019-05-21T21:59:38.734Z,100000.53
2019-05-21T22:02:17.307Z,100000.86
2019-05-21T22:04:47.604Z,100005.11
2019-05-21T22:07:17.987Z,100005.14
2019-05-21T22:09:48.288Z,100014.03
2019-05-21T22:12:18.647Z,100010.23
2019-05-21T22:14:52.520Z,100013.84
2019-05-21T22:17:23.268Z,100002.23
2019-05-21T22:19:53.568Z,100006.23
2019-05-21T22:22:24.418Z,100012.38
2019-05-21T22:24:55.019Z,100012.67
2019-05-21T22:27:25.368Z,100011.38
2019-05-21T22:29:55.686Z,100008.07
2019-05-21T22:32:26.932Z,100007.91
2019-05-21T22:34:57.237Z,100008.77
2019-05-21T22:37:28.033Z,100004.81
2019-05-21T22:39:58.270Z,100007.94
2019-05-21T22:42:29.147Z,100008.77
2019-05-21T22:45:08.010Z,100010.98
2019-05-21T22:47:32.550Z,100012.84
2019-05-21T22:50:02.853Z,100014.34
2019-05-21T22:52:34.870Z,100013.34
2019-05-21T22:55:07.115Z,100012.02
2019-05-21T22:57:37.402Z,100015.02
2019-05-21T23:00:08.213Z,100014.98
2019-05-21T23:02:40.173Z,100013.94
2019-05-21T23:05:11.043Z,100013.22
2019-05-21T23:07:43.509Z,100009.67
2019-05-21T23:10:14.305Z,100011.75
2019-05-21T23:12:44.979Z,100013.05
2019-05-21T23:15:24.288Z,100010.45
2019-05-21T23:17:50.365Z,100014.28
2019-05-21T23:20:23.856Z,100007.82
2019-05-21T23:22:58.462Z,100020.95
2019-05-21T23:25:30.479Z,100013.09
2019-05-21T23:28:00.697Z,100015.06
2019-05-21T23:30:30.942Z,100010.36
2019-05-21T23:33:01.217Z,100006.69
2019-05-21T23:35:31.534Z,100004.35
2019-05-21T23:38:02.475Z,100009.28
2019-05-21T23:40:32.729Z,100007.69
2019-05-21T23:43:02.946Z,100006.86
2019-05-21T23:45:33.254Z,100010.78
2019-05-21T23:48:05.118Z,100006.95
2019-05-21T23:50:35.465Z,100005.72
2019-05-21T23:53:07.513Z,100006.72
2019-05-21T23:55:38.795Z,100006.39
2019-05-21T23:58:10.253Z,100007.72
